createdAt,value
2023-04-15T00:02:32.485Z,0.80
2023-04-15T00:04:59.759Z,0.93
2023-04-15T00:08:00.267Z,1.67
2023-04-15T00:10:30.186Z,1.45
2023-04-15T00:12:57.519Z,1.00
2023-04-15T00:15:24.570Z,1.38
2023-04-15T00:17:52.280Z,1.42
2023-04-15T00:20:25.527Z,1.13
2023-04-15T00:22:53.597Z,1.23
2023-04-15T00:25:20.741Z,0.85
2023-04-15T00:30:31.752Z,0.98
2023-04-15T00:32:58.927Z,1.00
2023-04-15T00:41:03.878Z,0.95
2023-04-15T00:43:36.858Z,0.68
2023-04-15T00:46:08.132Z,1.20
2023-04-15T00:48:44.115Z,0.93
2023-04-15T00:57:29.475Z,1.38
2023-04-15T01:00:27.348Z,0.93
2023-04-15T01:02:54.867Z,1.27
2023-04-15T01:05:22.284Z,1.27
2023-04-15T01:08:00.756Z,1.08
2023-04-15T01:16:32.910Z,1.75
2023-04-15T01:19:00.404Z,1.42
2023-04-15T01:27:49.237Z,1.27
2023-04-15T01:30:16.315Z,1.85
2023-04-15T01:33:12.439Z,0.50
2023-04-15T01:35:47.200Z,0.73
2023-04-15T01:38:26.239Z,0.85
2023-04-15T01:40:53.921Z,1.27
2023-04-15T01:43:20.993Z,1.85
2023-04-15T01:45:48.102Z,0.77
2023-04-15T01:48:15.656Z,1.27
2023-04-15T01:50:48.699Z,1.02
2023-04-15T01:53:21.541Z,1.58
2023-04-15T01:55:48.656Z,1.35
2023-04-15T01:58:16.415Z,1.45
2023-04-15T02:00:43.964Z,1.60
2023-04-15T02:06:39.323Z,1.63
2023-04-15T02:09:06.432Z,1.25
2023-04-15T02:11:49.502Z,1.05
2023-04-15T02:14:26.122Z,0.88
2023-04-15T02:17:10.745Z,1.17
2023-04-15T02:19:39.282Z,0.30
2023-04-15T02:22:18.696Z,0.98
2023-04-15T02:24:46.930Z,0.95
2023-04-15T02:27:17.918Z,1.05
2023-04-15T02:29:48.124Z,1.00
2023-04-15T02:32:15.272Z,0.73
2023-04-15T02:34:42.840Z,1.02
2023-04-15T02:37:17.835Z,0.98
2023-04-15T02:39:45.193Z,0.80
2023-04-15T02:42:14.535Z,1.15
2023-04-15T02:44:41.664Z,1.13
2023-04-15T02:47:08.943Z,1.80
2023-04-15T02:52:25.936Z,0.75
2023-04-15T02:54:54.602Z,1.10
2023-04-15T02:57:21.755Z,0.82
2023-04-15T02:59:48.905Z,1.70
2023-04-15T03:02:16.243Z,1.23
2023-04-15T03:04:43.981Z,1.13
2023-04-15T03:07:46.850Z,1.67
2023-04-15T03:10:24.189Z,1.90
2023-04-15T03:12:51.633Z,1.38
2023-04-15T03:15:18.781Z,1.98
2023-04-15T03:21:02.769Z,1.20
2023-04-15T03:23:31.401Z,1.02
2023-04-15T03:25:59.831Z,1.65
2023-04-15T03:28:29.810Z,0.85
2023-04-15T03:31:26.498Z,1.42
2023-04-15T03:34:08.868Z,2.60
2023-04-15T03:36:36.513Z,1.63
2023-04-15T03:39:04.406Z,1.13
2023-04-15T03:41:32.810Z,0.93
2023-04-15T03:43:59.980Z,0.73
2023-04-15T03:46:27.817Z,1.75
2023-04-15T03:48:54.992Z,0.98
2023-04-15T03:51:41.835Z,1.00
2023-04-15T03:54:08.953Z,0.65
2023-04-15T03:56:45.861Z,1.27
2023-04-15T03:59:13.030Z,0.88
2023-04-15T04:01:42.462Z,0.70
2023-04-15T04:04:09.689Z,0.65
2023-04-15T04:06:47.291Z,1.45
2023-04-15T04:12:15.457Z,1.20
2023-04-15T04:15:12.190Z,1.20
2023-04-15T04:17:39.361Z,0.75
2023-04-15T04:20:06.881Z,0.45
2023-04-15T04:22:46.628Z,1.05
2023-04-15T04:30:46.127Z,0.80
2023-04-15T04:33:16.410Z,0.88
2023-04-15T04:42:01.417Z,1.40
2023-04-15T04:44:28.598Z,1.42
2023-04-15T04:47:20.728Z,2.00
2023-04-15T04:49:47.904Z,0.95
2023-04-15T04:52:15.169Z,0.73
2023-04-15T04:54:45.449Z,1.05
2023-04-15T04:57:44.129Z,1.00
2023-04-15T05:00:12.533Z,0.73
2023-04-15T05:02:39.917Z,0.90
2023-04-15T05:05:07.916Z,1.05
2023-04-15T05:07:35.405Z,1.10
2023-04-15T05:10:02.549Z,1.05
2023-04-15T05:12:29.680Z,0.75
2023-04-15T05:15:00.567Z,1.23
2023-04-15T05:17:50.133Z,1.70
2023-04-15T05:20:21.176Z,1.35
2023-04-15T05:22:54.394Z,0.93
2023-04-15T05:25:23.253Z,0.95
2023-04-15T05:28:02.397Z,1.38
2023-04-15T05:30:29.504Z,1.17
2023-04-15T05:32:59.820Z,0.68
2023-04-15T05:35:45.660Z,1.65
2023-04-15T05:38:14.892Z,0.82
2023-04-15T05:40:42.065Z,1.00
2023-04-15T05:43:09.242Z,0.95
2023-04-15T05:45:36.471Z,0.80
2023-04-15T05:48:32.974Z,0.93
2023-04-15T05:53:46.054Z,0.65
2023-04-15T05:56:13.295Z,1.17
2023-04-15T05:58:44.176Z,1.63
2023-04-15T06:01:11.686Z,0.73
2023-04-15T06:03:39.752Z,1.85
2023-04-15T06:06:15.503Z,1.00
2023-04-15T06:08:47.942Z,1.73
2023-04-15T06:14:07.887Z,0.90
2023-04-15T06:16:51.385Z,0.80
2023-04-15T06:19:19.373Z,0.85
2023-04-15T06:21:46.823Z,2.08
2023-04-15T06:24:14.085Z,1.77
2023-04-15T06:26:41.587Z,0.60
2023-04-15T06:32:02.711Z,1.40
2023-04-15T06:34:30.154Z,1.15
2023-04-15T06:36:59.632Z,0.70
2023-04-15T06:39:39.318Z,0.63
2023-04-15T06:42:09.390Z,0.88
2023-04-15T06:44:37.216Z,1.13
2023-04-15T06:47:04.617Z,0.88
2023-04-15T06:49:31.883Z,1.27
2023-04-15T06:52:04.503Z,0.93
2023-04-15T06:55:23.192Z,0.70
2023-04-15T06:57:50.477Z,1.55
2023-04-15T07:00:52.867Z,1.13
2023-04-15T07:03:23.313Z,1.70
2023-04-15T07:05:50.900Z,1.50
2023-04-15T07:08:17.981Z,1.42
2023-04-15T07:10:45.687Z,1.38
2023-04-15T07:13:12.942Z,1.00
2023-04-15T07:15:40.159Z,0.90
2023-04-15T07:18:07.459Z,0.75
2023-04-15T07:23:52.004Z,0.88
2023-04-15T07:26:19.126Z,1.08
2023-04-15T07:28:47.396Z,0.95
2023-04-15T07:31:17.846Z,1.52
2023-04-15T07:33:45.133Z,0.93
2023-04-15T07:36:19.841Z,0.90
2023-04-15T07:38:52.836Z,0.98
2023-04-15T07:41:35.509Z,0.40
2023-04-15T07:44:02.794Z,0.82
2023-04-15T07:46:30.156Z,0.43
2023-04-15T07:49:20.562Z,0.98
2023-04-15T07:51:48.830Z,1.27
2023-04-15T07:54:16.362Z,1.42
2023-04-15T07:56:46.584Z,1.38
2023-04-15T08:01:59.616Z,1.38
2023-04-15T08:04:27.451Z,1.17
2023-04-15T08:06:55.249Z,0.73
2023-04-15T08:09:22.451Z,0.98
2023-04-15T08:11:51.352Z,0.80
2023-04-15T08:14:18.607Z,1.00
2023-04-15T08:16:45.843Z,1.55
2023-04-15T08:19:13.072Z,1.77
2023-04-15T08:21:40.988Z,1.23
2023-04-15T08:27:17.984Z,1.42
2023-04-15T08:29:52.019Z,0.88
2023-04-15T08:32:19.277Z,1.10
2023-04-15T08:34:48.996Z,1.17
2023-04-15T08:37:33.243Z,1.55
2023-04-15T08:40:12.063Z,1.42
2023-04-15T08:42:43.658Z,3.08
2023-04-15T08:45:14.999Z,1.90
2023-04-15T08:47:43.818Z,1.45
2023-04-15T08:50:11.816Z,1.10
2023-04-15T08:52:39.564Z,1.52
2023-04-15T08:55:08.919Z,2.05
2023-04-15T08:57:36.582Z,1.30
2023-04-15T09:00:05.687Z,1.23
2023-04-15T09:02:33.383Z,1.52
2023-04-15T09:05:00.906Z,1.48
2023-04-15T09:07:28.079Z,1.58
2023-04-15T09:10:01.597Z,1.63
2023-04-15T09:12:32.160Z,1.63
2023-04-15T09:14:59.864Z,1.15
2023-04-15T09:17:27.811Z,1.17
2023-04-15T09:20:10.616Z,0.90
2023-04-15T09:22:40.153Z,1.60
2023-04-15T09:25:16.725Z,1.02
2023-04-15T09:27:50.959Z,0.55
2023-04-15T09:30:18.483Z,0.88
2023-04-15T09:32:55.003Z,2.00
2023-04-15T09:35:23.125Z,1.08
2023-04-15T09:37:51.451Z,0.77
2023-04-15T09:40:38.840Z,1.10
2023-04-15T09:43:06.634Z,1.73
2023-04-15T09:45:34.625Z,1.23
2023-04-15T09:48:16.316Z,2.53
2023-04-15T09:50:44.094Z,1.08
2023-04-15T09:53:14.412Z,1.35
2023-04-15T09:55:44.445Z,0.95
2023-04-15T09:58:18.759Z,1.00
2023-04-15T10:00:48.165Z,0.82
2023-04-15T10:03:19.325Z,0.60
2023-04-15T10:05:47.277Z,1.25
2023-04-15T10:08:14.713Z,3.35
2023-04-15T10:10:42.175Z,3.45
2023-04-15T10:13:11.089Z,2.28
2023-04-15T10:15:38.698Z,4.90
2023-04-15T10:18:06.352Z,3.70
2023-04-15T10:20:33.466Z,4.93
2023-04-15T10:23:01.011Z,5.50
2023-04-15T10:25:29.206Z,4.25
2023-04-15T10:27:56.503Z,13.73
2023-04-15T10:30:24.310Z,5.03
2023-04-15T10:32:51.595Z,3.70
2023-04-15T10:35:19.455Z,4.45
2023-04-15T10:37:46.765Z,3.00
2023-04-15T10:40:32.669Z,3.88
2023-04-15T10:45:46.042Z,3.47
2023-04-15T10:50:58.552Z,3.75
2023-04-15T10:53:34.628Z,4.20
2023-04-15T10:56:01.906Z,3.53
2023-04-15T10:58:42.065Z,3.15
2023-04-15T11:01:09.415Z,3.63
2023-04-15T11:03:40.933Z,4.95
2023-04-15T11:06:11.982Z,3.42
2023-04-15T11:08:59.264Z,4.65
2023-04-15T11:11:46.480Z,3.00
2023-04-15T11:14:16.762Z,5.40
2023-04-15T11:16:48.054Z,4.15
2023-04-15T11:19:15.819Z,4.28
2023-04-15T11:21:42.922Z,5.15
2023-04-15T11:24:12.180Z,3.42
2023-04-15T11:26:40.009Z,4.07
2023-04-15T11:29:07.096Z,3.75
2023-04-15T11:31:34.204Z,4.68
2023-04-15T11:34:02.458Z,3.95
2023-04-15T11:36:31.737Z,4.28
2023-04-15T11:38:59.772Z,3.88
2023-04-15T11:41:26.989Z,3.13
2023-04-15T11:43:54.215Z,4.18
2023-04-15T11:46:22.959Z,4.40
2023-04-15T11:48:50.228Z,4.18
2023-04-15T11:51:17.478Z,3.78
2023-04-15T11:53:44.640Z,2.70
2023-04-15T11:56:12.938Z,3.50
2023-04-15T11:58:40.187Z,5.63
2023-04-15T12:01:13.603Z,4.70
2023-04-15T12:03:42.734Z,3.15
2023-04-15T12:06:16.400Z,4.28
2023-04-15T12:09:25.526Z,3.20
2023-04-15T12:11:53.903Z,5.95
2023-04-15T12:14:22.832Z,4.43
2023-04-15T12:16:58.527Z,15.88
2023-04-15T12:19:26.028Z,4.63
2023-04-15T12:21:54.194Z,4.45
2023-04-15T12:24:29.735Z,4.22
2023-04-15T12:27:06.787Z,4.47
2023-04-15T12:29:34.542Z,4.47
2023-04-15T12:32:07.714Z,5.07
2023-04-15T12:34:59.597Z,3.45
2023-04-15T12:37:30.222Z,4.63
2023-04-15T12:42:23.516Z,3.60
2023-04-15T12:44:53.471Z,3.33
2023-04-15T12:47:20.799Z,4.63
2023-04-15T12:49:49.657Z,3.20
2023-04-15T12:52:16.838Z,3.20
2023-04-15T12:54:52.899Z,4.40
2023-04-15T12:57:20.033Z,6.13
2023-04-15T12:59:47.543Z,3.25
2023-04-15T13:02:15.863Z,4.30
2023-04-15T13:04:43.134Z,3.85
2023-04-15T13:09:51.826Z,3.78
2023-04-15T13:12:19.283Z,5.85
2023-04-15T13:14:46.555Z,4.13
2023-04-15T13:17:14.167Z,6.28
2023-04-15T13:19:41.644Z,3.40
2023-04-15T13:22:18.048Z,3.00
2023-04-15T13:24:45.536Z,3.38
2023-04-15T13:27:12.650Z,5.45
2023-04-15T13:29:42.999Z,3.97
2023-04-15T13:32:10.482Z,5.63
2023-04-15T13:34:37.668Z,3.70
2023-04-15T13:37:08.561Z,3.95
2023-04-15T13:39:35.678Z,3.22
2023-04-15T13:42:03.253Z,4.72
2023-04-15T13:44:36.331Z,3.85
2023-04-15T13:50:26.705Z,4.22
2023-04-15T13:52:53.847Z,3.85
2023-04-15T14:02:39.980Z,5.13
2023-04-15T14:05:32.733Z,4.90
2023-04-15T14:08:00.575Z,4.32
2023-04-15T14:13:01.663Z,3.58
2023-04-15T14:15:28.869Z,3.17
2023-04-15T14:17:56.267Z,7.13
2023-04-15T14:20:46.812Z,3.28
2023-04-15T14:23:14.033Z,4.55
2023-04-15T14:28:45.225Z,2.85
2023-04-15T14:32:12.892Z,3.28
2023-04-15T14:34:40.656Z,1.75
2023-04-15T14:37:26.467Z,3.05
2023-04-15T14:39:53.631Z,4.10
2023-04-15T14:48:53.698Z,2.55
2023-04-15T14:51:45.300Z,3.78
2023-04-15T14:54:12.491Z,4.03
2023-04-15T14:57:10.813Z,5.05
2023-04-15T15:02:42.913Z,7.70
2023-04-15T15:05:11.617Z,6.78
2023-04-15T15:07:40.774Z,11.48
2023-04-15T15:10:08.338Z,6.38
2023-04-15T15:12:45.720Z,6.03
2023-04-15T15:18:07.006Z,8.55
2023-04-15T15:23:32.099Z,9.43
2023-04-15T15:25:59.618Z,7.90
2023-04-15T15:28:27.508Z,9.20
2023-04-15T15:31:36.538Z,9.15
2023-04-15T15:34:22.263Z,4.57
2023-04-15T15:36:49.458Z,6.90
2023-04-15T15:39:31.733Z,5.32
2023-04-15T15:41:59.017Z,6.63
2023-04-15T15:44:36.245Z,5.53
2023-04-15T15:47:03.595Z,6.03
2023-04-15T15:49:31.000Z,7.28
2023-04-15T15:52:03.916Z,6.82
2023-04-15T15:54:31.985Z,5.40
2023-04-15T15:56:59.103Z,6.28
2023-04-15T15:59:26.426Z,4.40
2023-04-15T16:01:53.713Z,6.50
2023-04-15T16:04:21.005Z,5.65
2023-04-15T16:06:48.853Z,9.68
2023-04-15T16:09:16.237Z,5.13
2023-04-15T16:11:45.097Z,5.38
2023-04-15T16:14:13.918Z,11.82
2023-04-15T16:16:41.110Z,5.60
2023-04-15T16:19:10.962Z,6.55
2023-04-15T16:21:44.803Z,4.30
2023-04-15T16:24:13.106Z,4.15
2023-04-15T16:27:04.794Z,5.50
2023-04-15T16:29:32.121Z,4.85
2023-04-15T16:31:59.298Z,6.65
2023-04-15T16:34:26.670Z,5.25
2023-04-15T16:36:53.797Z,4.05
2023-04-15T16:39:23.133Z,4.25
2023-04-15T16:41:50.293Z,5.65
2023-04-15T16:44:18.058Z,4.97
2023-04-15T16:52:11.108Z,7.38
2023-04-15T16:54:50.272Z,5.63
2023-04-15T16:57:17.719Z,6.18
2023-04-15T17:00:10.580Z,5.25
2023-04-15T17:02:35.922Z,7.53
2023-04-15T17:05:03.286Z,5.63
2023-04-15T17:07:33.615Z,4.43
2023-04-15T17:13:17.672Z,4.93
2023-04-15T17:15:45.082Z,6.07
2023-04-15T17:18:12.374Z,6.40
2023-04-15T17:20:40.008Z,5.20
2023-04-15T17:23:10.732Z,4.97
2023-04-15T17:25:40.237Z,5.65
2023-04-15T17:28:07.369Z,4.90
2023-04-15T17:30:34.680Z,4.80
2023-04-15T17:34:02.067Z,4.28
2023-04-15T17:36:15.430Z,5.25
2023-04-15T17:38:45.658Z,4.75
2023-04-15T17:41:18.162Z,4.10
2023-04-15T17:43:45.408Z,4.40
2023-04-15T17:46:19.566Z,4.63
2023-04-15T17:48:47.704Z,4.90
2023-04-15T17:51:32.687Z,4.18
2023-04-15T17:53:59.815Z,3.88
2023-04-15T17:56:44.526Z,4.65
2023-04-15T17:59:17.556Z,7.07
2023-04-15T18:01:49.495Z,3.63
2023-04-15T18:04:16.870Z,3.15
2023-04-15T18:07:16.436Z,5.95
2023-04-15T18:09:37.221Z,4.13
2023-04-15T18:12:18.006Z,3.55
2023-04-15T18:17:57.926Z,6.50
2023-04-15T18:20:27.907Z,3.55
2023-04-15T18:22:55.696Z,3.65
2023-04-15T18:25:22.901Z,3.47
2023-04-15T18:27:50.027Z,4.25
2023-04-15T18:30:18.249Z,4.57
2023-04-15T18:32:45.437Z,3.95
2023-04-15T18:38:16.863Z,4.45
2023-04-15T18:41:00.868Z,3.13
2023-04-15T18:43:27.983Z,3.80
2023-04-15T18:45:55.200Z,3.15
2023-04-15T18:48:26.414Z,5.80
2023-04-15T18:50:58.382Z,3.75
2023-04-15T18:53:25.687Z,3.63
2023-04-15T18:55:52.883Z,4.10
2023-04-15T18:59:08.920Z,3.47
2023-04-15T19:01:18.011Z,3.38
2023-04-15T19:06:27.216Z,3.53
2023-04-15T19:08:54.621Z,4.13
2023-04-15T19:11:21.825Z,3.90
2023-04-15T19:13:49.084Z,3.88
2023-04-15T19:16:25.116Z,4.80
2023-04-15T19:18:52.318Z,3.58
2023-04-15T19:24:01.392Z,3.53
2023-04-15T19:26:28.514Z,3.70
2023-04-15T19:28:58.737Z,3.85
2023-04-15T19:31:26.254Z,3.22
2023-04-15T19:33:56.728Z,3.30
2023-04-15T19:39:15.835Z,3.28
2023-04-15T19:41:44.444Z,3.35
2023-04-15T19:44:14.863Z,2.85
2023-04-15T19:46:44.762Z,3.08
2023-04-15T19:49:12.210Z,2.85
2023-04-15T19:51:39.413Z,4.00
2023-04-15T19:54:06.530Z,3.53
2023-04-15T19:56:39.017Z,4.18
2023-04-15T19:59:12.873Z,3.72
2023-04-15T20:01:50.355Z,4.80
2023-04-15T20:04:27.507Z,4.53
2023-04-15T20:07:17.615Z,3.30
2023-04-15T20:09:56.271Z,3.88
2023-04-15T20:15:11.032Z,2.95
2023-04-15T20:17:38.401Z,3.90
2023-04-15T20:20:06.181Z,3.22
2023-04-15T20:22:34.288Z,2.90
2023-04-15T20:25:02.214Z,2.80
2023-04-15T20:27:35.503Z,3.95
2023-04-15T20:32:54.687Z,3.33
2023-04-15T20:35:22.598Z,3.90
2023-04-15T20:38:35.554Z,4.15
2023-04-15T20:40:51.871Z,3.13
2023-04-15T20:43:19.023Z,3.05
2023-04-15T20:45:46.397Z,3.67
2023-04-15T20:48:14.038Z,5.57
2023-04-15T20:50:41.690Z,3.28
2023-04-15T20:53:08.910Z,7.03
2023-04-15T20:58:47.350Z,3.72
2023-04-15T21:01:14.574Z,6.60
2023-04-15T21:03:42.148Z,4.72
2023-04-15T21:06:18.680Z,4.68
2023-04-15T21:08:45.995Z,3.72
2023-04-15T21:14:13.166Z,3.30
2023-04-15T21:16:40.346Z,3.80
2023-04-15T21:19:07.862Z,4.90
2023-04-15T21:21:49.267Z,3.13
2023-04-15T21:24:21.989Z,3.28
2023-04-15T21:26:49.301Z,3.80
2023-04-15T21:29:16.425Z,3.35
2023-04-15T21:31:53.575Z,3.30
2023-04-15T21:34:20.846Z,4.35
2023-04-15T21:36:48.114Z,4.75
2023-04-15T21:39:21.671Z,3.70
2023-04-15T21:42:14.835Z,4.22
2023-04-15T21:44:44.974Z,3.60
2023-04-15T21:48:00.797Z,4.68
2023-04-15T21:50:37.349Z,4.88
2023-04-15T21:56:47.675Z,4.00
2023-04-15T22:05:47.084Z,2.92
2023-04-15T22:08:23.258Z,2.95
2023-04-15T22:16:47.862Z,5.65
2023-04-15T22:22:01.479Z,2.28
2023-04-15T22:27:17.529Z,2.92
2023-04-15T22:30:04.306Z,3.30
2023-04-15T22:32:31.511Z,3.63
2023-04-15T22:34:58.750Z,3.22
2023-04-15T22:37:26.196Z,2.55
2023-04-15T22:39:53.280Z,3.03
2023-04-15T22:42:20.408Z,5.97
2023-04-15T22:44:47.824Z,5.65
2023-04-15T22:47:21.200Z,4.90
2023-04-15T22:50:00.381Z,4.15
2023-04-15T22:52:30.647Z,4.20
2023-04-15T22:54:58.808Z,5.32
2023-04-15T22:57:27.898Z,2.15
2023-04-15T23:02:31.081Z,2.67
2023-04-15T23:05:11.791Z,2.50
2023-04-15T23:07:40.863Z,5.03
2023-04-15T23:13:20.105Z,3.53
2023-04-15T23:15:47.349Z,2.72
2023-04-15T23:18:14.516Z,2.92
2023-04-15T23:20:41.961Z,3.80
2023-04-15T23:24:01.908Z,3.47
2023-04-15T23:26:29.307Z,2.35
2023-04-15T23:28:56.506Z,2.47
2023-04-15T23:31:23.683Z,3.08
2023-04-15T23:33:51.011Z,4.90
2023-04-15T23:39:01.437Z,5.35
2023-04-15T23:41:28.570Z,3.13
2023-04-15T23:43:55.795Z,2.10
2023-04-15T23:46:22.971Z,3.47
2023-04-15T23:48:50.203Z,3.28
2023-04-15T23:51:17.409Z,2.22
2023-04-15T23:53:44.575Z,3.72
2023-04-15T23:56:11.716Z,2.05
2023-04-15T23:58:38.924Z,3.05
